Last 30 Days

AM-Summit 8643' (Ward Mt.)

Daily Data | America/Los_Angeles
as of 6/24/24 7:45 PM PDT
Date Daily Max Temp (°F) Time of Max Temp Daily Min Temp (°F) Time of Min Temp Wind Spd (mph) Daily Max Wind (mph) Time of Max Wind Max Wind Dir (°) Dew Pt (°F) Max RH (%) Min RH (%) Max Wet Bulb Temp (°F) Min Wet Bulb Temp (°F) WetB Hrs <28F (hrs) Min Wind Chill (°F) Wind Chill Time MinBV Day (V)
6/23/24 71.0 1633 53.9 2356 0.0 0.0 1354 NNE | 27 38.5 62 33 56.0 44.9 0.0 - - 13.0
6/22/24 72.7 1625 56.7 0319 0.0 0.0 1302 NNE | 28 36.4 56 23 55.6 44.6 0.0 - - 13.0
6/21/24 78.9 1616 50.2 0427 0.0 0.0 1417 NNE | 27 33.0 59 15 56.6 41.1 0.0 - - 13.0
6/20/24 68.1 1415 45.0 0440 0.0 0.0 1354 NNE | 27 30.9 57 18 51.6 37.6 0.0 45.0 0451 13.0
6/19/24 63.3 1714 41.8 0407 0.0 0.0 1141 NNE | 30 25.6 51 22 48.5 33.7 0.0 41.8 0407 13.0
6/18/24 56.1 1607 35.8 0430 0.0 0.0 1217 NNE | 29 15.3 47 15 41.8 28.5 0.0 35.8 0433 13.0
6/17/24 55.5 1757 34.0 0624 0.0 0.0 1305 NNE | 28 19.7 98 12 39.4 29.9 0.0 34.0 0624 13.0
6/16/24 58.3 1611 39.6 2358 0.0 0.0 1116 NNE | 30 20.8 71 13 45.1 32.1 0.0 39.6 2358 13.0
6/15/24 60.9 1729 41.6 0453 0.0 0.0 1402 NNE | 28 20.1 60 17 46.7 31.6 0.0 41.6 0453 13.0
6/14/24 63.0 1420 45.1 2354 0.0 0.0 1229 NNE | 29 25.8 58 16 48.6 35.5 0.0 45.1 - 13.0
6/13/24 69.8 1553 51.8 2339 0.0 0.0 1336 NNE | 29 41.5 74 20 57.3 44.3 0.0 - - 13.0
6/12/24 73.4 1704 59.0 2139 0.0 0.0 1344 NNE | 29 33.6 66 13 56.2 41.8 0.0 - - 13.0
6/11/24 74.0 1617 55.1 0512 0.0 0.0 1316 NNE | 32 39.6 68 19 53.9 43.8 0.0 - - 13.0
6/10/24 72.2 1455 48.6 0523 0.0 0.0 1433 NNE | 27 41.3 75 32 59.5 40.6 0.0 48.6 - 13.0
6/9/24 63.9 1610 48.3 0658 0.0 0.0 1324 NNE | 30 31.2 65 13 51.9 37.5 0.0 48.3 - 13.0
6/8/24 64.9 1727 50.7 2239 0.0 0.0 1321 NNE | 29 23.3 72 8 49.8 38.8 0.0 - - 13.0
6/7/24 70.7 1602 55.8 2203 0.0 0.0 1241 NNE | 30 33.4 52 13 53.0 40.4 0.0 - - 13.0
6/6/24 71.1 1735 58.4 2224 0.0 0.0 1348 NNE | 29 40.5 58 27 56.7 46.4 0.0 - - 13.0
6/5/24 73.8 1711 55.6 0210 0.0 0.0 1654 SSE | 156 41.3 60 22 59.1 45.4 0.0 - - 13.0
6/4/24 73.0 1712 41.0 0220 0.0 0.0 1552 NNE | 27 42.3 100 33 58.2 40.7 0.0 41.0 0239 13.0
6/3/24 47.5 0013 41.7 0642 0.0 0.0 1503 NNE | 28 41.4 100 77 45.0 41.4 0.0 41.7 0646 13.0
6/2/24 56.4 1514 42.7 0546 0.0 0.0 1348 NNE | 31 36.2 88 44 50.8 36.9 0.0 42.7 0548 13.0
6/1/24 58.8 1550 44.7 2345 0.0 0.0 1205 NNE | 32 34.4 76 28 48.2 39.1 0.0 44.7 2346 13.0
5/31/24 63.9 1706 43.3 0541 0.0 0.0 1414 NNE | 31 30.2 65 24 52.2 35.8 0.0 43.3 0541 13.0
5/30/24 64.5 1557 41.3 0309 7.8 30.3 0851 NNE | 30 29.8 71 24 53.0 33.7 0.0 31.3 0554 13.0
5/29/24 58.4 1719 39.4 0542 19.4 37.4 2225 NNE | 15 32.3 85 28 51.1 35.1 0.0 28.4 0406 13.0
5/28/24 56.7 1532 41.3 2315 26.9 63.9 1530 SSE | 155 35.3 90 32 46.3 39.6 0.0 30.2 2327 13.0
5/27/24 60.5 1646 43.8 0405 17.6 42.5 1700 S | 187 36.3 73 42 49.7 38.6 0.0 35.5 0144 13.0
5/26/24 58.0 1609 35.2 0357 8.1 32.0 1827 SSW | 208 22.4 69 18 47.6 27.6 0.7 28.2 0420 13.0
5/25/24 45.4 1727 31.0 0549 35.1 64.8 1417 S | 172 29.3 99 20 40.2 27.7 0.2 13.4 0522 13.0
Max 78.9 - 59.0 - 35.1 64.8 - - 42.3 100 77 59.5 46.4 0.7 48.6 - 13.0
Avg - - - - 3.8 - - - 32.1 - - - - - - - -
Min 45.4 - 31.0 - 0.0 0.0 - - 15.3 47 8 39.4 27.6 0.0 13.4 - 13.0